createdAt,value
2022-10-01T00:02:31.237Z,21.5
2022-10-01T00:08:08.677Z,21.4
2022-10-01T00:13:46.210Z,21.5
2022-10-01T00:19:23.202Z,21.5
2022-10-01T00:24:59.473Z,21.4
2022-10-01T00:30:40.228Z,21.4
2022-10-01T00:36:18.657Z,21.4
2022-10-01T00:41:55.608Z,21.4
2022-10-01T00:47:33.233Z,21.4
2022-10-01T00:52:58.628Z,21.4
2022-10-01T00:58:35.113Z,21.4
2022-10-01T01:04:12.910Z,21.4
2022-10-01T01:09:33.538Z,21.4
2022-10-01T01:15:10.758Z,21.4
2022-10-01T01:20:33.194Z,21.4
2022-10-01T01:25:53.639Z,21.4
2022-10-01T01:31:16.151Z,21.4
2022-10-01T01:36:56.465Z,21.3
2022-10-01T01:42:18.443Z,21.4
2022-10-01T01:47:56.543Z,21.4
2022-10-01T01:53:33.825Z,21.3
2022-10-01T01:58:55.376Z,21.3
2022-10-01T02:04:33.130Z,21.3
2022-10-01T02:10:11.019Z,21.3
2022-10-01T02:15:47.826Z,21.3
2022-10-01T02:21:25.572Z,21.3
2022-10-01T02:27:03.164Z,21.3
2022-10-01T02:32:41.041Z,21.3
2022-10-01T02:38:21.108Z,21.3
2022-10-01T02:43:43.258Z,21.3
2022-10-01T02:49:05.901Z,21.3
2022-10-01T02:54:46.635Z,21.3
2022-10-01T03:00:25.299Z,21.3
2022-10-01T03:05:47.210Z,21.3
2022-10-01T03:11:24.884Z,21.3
2022-10-01T03:17:02.037Z,21.3
2022-10-01T03:22:38.856Z,21.3
2022-10-01T03:28:15.884Z,21.3
2022-10-01T03:33:38.195Z,21.3
2022-10-01T03:38:59.835Z,21.3
2022-10-01T03:44:37.329Z,21.3
2022-10-01T03:49:59.437Z,21.3
2022-10-01T03:55:36.059Z,21.3
2022-10-01T04:01:12.897Z,21.3
2022-10-01T04:06:35.659Z,21.3
2022-10-01T04:12:16.203Z,21.3
2022-10-01T04:17:53.429Z,21.3
2022-10-01T04:23:16.049Z,21.3
2022-10-01T04:28:37.603Z,21.3
2022-10-01T04:34:20.284Z,21.3
2022-10-01T04:39:45.028Z,21.2
2022-10-01T04:45:21.928Z,21.2
2022-10-01T04:50:44.061Z,21.2
2022-10-01T04:56:06.653Z,21.2
2022-10-01T05:01:34.185Z,21.2
2022-10-01T05:06:55.898Z,21.2
2022-10-01T05:12:36.589Z,21.2
2022-10-01T05:23:36.673Z,21.1
2022-10-01T05:34:36.588Z,21.1
2022-10-01T05:40:14.339Z,21.2
2022-10-01T05:51:17.933Z,21.1
2022-10-01T05:56:55.577Z,21.1
2022-10-01T06:02:36.146Z,21.1
2022-10-01T06:08:16.979Z,21.1
2022-10-01T06:13:59.450Z,21
2022-10-01T06:19:37.776Z,21.1
2022-10-01T06:25:15.009Z,21
2022-10-01T06:30:53.044Z,21.1
2022-10-01T06:36:15.825Z,21.1
2022-10-01T06:41:53.717Z,21.1
2022-10-01T06:58:19.923Z,21.1
2022-10-01T07:03:58.799Z,21.1
2022-10-01T07:09:40.888Z,21.1
2022-10-01T07:15:18.245Z,21.1
2022-10-01T07:20:56.694Z,21.1
2022-10-01T07:42:42.515Z,21.2
2022-10-01T07:53:27.618Z,21.2
2022-10-01T07:59:05.313Z,21.2
2022-10-01T08:04:43.810Z,21.2
2022-10-01T08:10:21.256Z,21.3
2022-10-01T08:15:44.044Z,21.2
2022-10-01T08:20:51.234Z,21.2
2022-10-01T08:26:18.916Z,21.2
2022-10-01T08:31:32.290Z,21.2
2022-10-01T08:36:39.412Z,21.2
2022-10-01T08:42:01.591Z,21.2
2022-10-01T08:47:39.291Z,21.2
2022-10-01T08:53:22.367Z,21.2
2022-10-01T09:04:27.009Z,21.3
2022-10-01T09:09:49.572Z,21.2
2022-10-01T09:15:30.176Z,21.2
2022-10-01T09:21:11.559Z,21.3
2022-10-01T09:26:34.302Z,21.2
2022-10-01T09:37:19.632Z,21.3
2022-10-01T09:59:05.178Z,21.1
2022-10-01T10:04:50.738Z,21.1
2022-10-01T10:15:41.414Z,21.2
2022-10-01T10:21:26.259Z,21.1
2022-10-01T10:27:03.793Z,21.1
2022-10-01T10:32:46.545Z,21.1
2022-10-01T10:38:24.627Z,21.1
2022-10-01T10:44:06.198Z,21.1
2022-10-01T10:49:49.171Z,21.1
2022-10-01T11:00:11.888Z,21.1
2022-10-01T11:05:34.595Z,21.1
2022-10-01T11:16:21.185Z,21
2022-10-01T11:22:00.513Z,21.1
2022-10-01T11:27:42.779Z,21
2022-10-01T11:33:05.143Z,21
2022-10-01T11:38:42.802Z,21
2022-10-01T11:44:20.815Z,21
2022-10-01T11:50:00.640Z,21
2022-10-01T11:55:43.813Z,21.1
2022-10-01T12:06:50.914Z,21
2022-10-01T12:12:27.708Z,21
2022-10-01T12:18:09.832Z,21.1
2022-10-01T12:23:48.440Z,21.1
2022-10-01T12:29:00.085Z,20.9
2022-10-01T12:34:38.348Z,21
2022-10-01T12:40:00.824Z,21
2022-10-01T12:45:22.216Z,21.1
2022-10-01T12:50:44.909Z,21.1
2022-10-01T12:56:27.491Z,20.9
2022-10-01T13:01:49.165Z,20.9
2022-10-01T13:07:27.527Z,21
2022-10-01T13:13:08.937Z,20.9
2022-10-01T13:18:31.427Z,21
2022-10-01T13:23:53.934Z,21
2022-10-01T13:29:32.103Z,21
2022-10-01T13:35:09.694Z,21.1
2022-10-01T13:40:53.024Z,21.1
2022-10-01T13:51:53.951Z,21.1
2022-10-01T13:57:31.246Z,21.1
2022-10-01T14:35:12.564Z,21.2
2022-10-01T14:40:53.709Z,21.2
2022-10-01T14:46:31.373Z,21.2
2022-10-01T14:52:12.951Z,21.2
2022-10-01T14:57:51.905Z,21.2
2022-10-01T15:03:13.753Z,21.2
2022-10-01T15:08:40.966Z,21.3
2022-10-01T15:14:03.214Z,21.3
2022-10-01T15:19:41.374Z,21.3
2022-10-01T15:25:03.344Z,21.3
2022-10-01T15:30:28.890Z,21.3
2022-10-01T15:35:51.917Z,21.3
2022-10-01T15:41:52.749Z,21.3
2022-10-01T15:47:30.429Z,21.3
2022-10-01T15:52:37.533Z,21.3
2022-10-01T15:58:15.528Z,21.3
2022-10-01T16:03:53.683Z,21.3
2022-10-01T16:09:30.601Z,21.3
2022-10-01T16:15:08.914Z,21.3
2022-10-01T16:20:32.260Z,21.3
2022-10-01T16:25:54.729Z,21.3
2022-10-01T16:31:33.243Z,21.3
2022-10-01T16:36:55.606Z,21.3
2022-10-01T16:42:55.524Z,21.3
2022-10-01T16:48:17.926Z,21.3
2022-10-01T16:53:55.178Z,21.3
2022-10-01T16:58:46.374Z,21.3
2022-10-01T17:04:08.950Z,21.3
2022-10-01T17:09:50.087Z,21.3
2022-10-01T17:15:27.699Z,21.4
2022-10-01T17:21:07.305Z,21.3
2022-10-01T17:26:45.120Z,21.3
2022-10-01T17:32:24.156Z,21.3
2022-10-01T17:38:01.869Z,21.3
2022-10-01T17:43:43.030Z,21.4
2022-10-01T17:49:27.694Z,21.3
2022-10-01T17:54:57.690Z,21.3
2022-10-01T18:00:40.415Z,21.3
2022-10-01T18:06:38.607Z,21.4
2022-10-01T18:12:17.675Z,21.4
2022-10-01T18:17:26.149Z,21.3
2022-10-01T18:24:26.774Z,21.4
2022-10-01T18:30:04.657Z,21.3
2022-10-01T18:35:26.475Z,21.4
2022-10-01T18:41:04.963Z,21.4
2022-10-01T18:46:47.170Z,21.4
2022-10-01T18:52:08.705Z,21.4
2022-10-01T18:57:35.124Z,21.4
2022-10-01T19:03:00.651Z,21.4
2022-10-01T19:08:38.822Z,21.4
2022-10-01T19:14:21.040Z,21.4
2022-10-01T19:19:44.237Z,21.4
2022-10-01T19:25:27.306Z,21.4
2022-10-01T19:31:05.307Z,21.4
2022-10-01T19:36:14.378Z,21.4
2022-10-01T19:41:54.028Z,21.4
2022-10-01T19:47:16.124Z,21.5
2022-10-01T19:52:38.673Z,21.4
2022-10-01T19:58:00.790Z,21.4
2022-10-01T20:03:26.821Z,21.4
2022-10-01T20:09:04.815Z,21.4
2022-10-01T20:14:31.176Z,21.4
2022-10-01T20:20:09.569Z,21.4
2022-10-01T20:25:46.874Z,21.4
2022-10-01T20:31:09.065Z,21.4
2022-10-01T20:36:51.221Z,21.5
2022-10-01T20:42:32.059Z,21.5
2022-10-01T20:47:39.577Z,21.5
2022-10-01T20:53:17.262Z,21.4
2022-10-01T20:58:24.322Z,21.5
2022-10-01T21:03:47.342Z,21.5
2022-10-01T21:09:09.790Z,21.5
2022-10-01T21:14:31.922Z,21.5
2022-10-01T21:20:14.158Z,21.5
2022-10-01T21:25:35.761Z,21.6
2022-10-01T21:31:12.734Z,21.6
2022-10-01T21:36:38.910Z,21.5
2022-10-01T21:42:21.332Z,21.5
2022-10-01T21:47:47.988Z,21.5
2022-10-01T21:53:28.755Z,21.5
2022-10-01T21:59:06.446Z,21.5
2022-10-01T22:04:44.870Z,21.5
2022-10-01T22:10:22.184Z,21.5
2022-10-01T22:15:59.392Z,21.6
2022-10-01T22:21:22.624Z,21.6
2022-10-01T22:26:43.911Z,21.5
2022-10-01T22:32:06.172Z,21.5
2022-10-01T22:37:28.555Z,21.5
2022-10-01T22:42:49.912Z,21.5
2022-10-01T22:48:28.090Z,21.5
2022-10-01T22:54:05.232Z,21.5
2022-10-01T22:59:43.155Z,21.5
2022-10-01T23:05:05.610Z,21.5
2022-10-01T23:10:43.620Z,21.5
2022-10-01T23:16:20.252Z,21.4
2022-10-01T23:21:58.058Z,21.5
2022-10-01T23:27:05.077Z,21.5
2022-10-01T23:32:11.897Z,21.5
2022-10-01T23:37:49.257Z,21.4
2022-10-01T23:43:11.150Z,21.4
2022-10-01T23:48:33.093Z,21.4
2022-10-01T23:54:09.971Z,21.5
2022-10-01T23:59:47.282Z,21.5
